Time;durP1;ratioP1;P1;durP2;ratioP2;P2;SDS_P1;SDS_P2;PMS_P1;PMS_P2;Temp;Humidity;BMP_temperature;BMP_pressure;BME280_temperature;BME280_humidity;BME280_pressure;Samples;Min_cycle;Max_cycle;Signal;HPM_P1;HPM_P2
2022/11/14 00:01:23;;;;;;;25.27;21.20;;;2.90;99.90;;;;;;2622437;54;20366;-82
2022/11/14 00:07:10;;;;;;;25.37;19.30;;;2.70;99.90;;;;;;2626343;54;20176;-82
2022/11/14 00:12:58;;;;;;;21.13;18.70;;;2.70;99.90;;;;;;2625414;54;20151;-83
2022/11/14 00:18:45;;;;;;;23.73;18.77;;;2.50;99.90;;;;;;2617086;54;20130;-76
2022/11/14 00:24:34;;;;;;;20.13;18.00;;;2.40;99.90;;;;;;2616682;54;20127;-77
2022/11/14 00:30:21;;;;;;;20.33;18.13;;;2.50;99.90;;;;;;2615819;39;20765;-76
2022/11/14 00:36:09;;;;;;;19.80;17.70;;;2.60;99.90;;;;;;2616782;54;20134;-77
2022/11/14 00:41:57;;;;;;;23.00;17.40;;;2.60;99.90;;;;;;2616664;54;20520;-75
2022/11/14 00:47:45;;;;;;;18.33;16.43;;;2.40;99.90;;;;;;2616194;54;20149;-80
2022/11/14 00:53:33;;;;;;;20.80;18.00;;;2.40;99.90;;;;;;2617574;54;20265;-79
2022/11/14 00:59:20;;;;;;;22.23;18.07;;;2.60;99.90;;;;;;2617883;54;20150;-80
2022/11/14 01:05:09;;;;;;;22.03;18.23;;;2.30;99.90;;;;;;2617296;54;20122;-79
2022/11/14 01:14:18;;;;;;;19.93;17.83;;;2.10;99.90;;;;;;2616502;54;20446;-80
2022/11/14 01:20:07;;;;;;;24.50;19.00;;;2.20;99.90;;;;;;2616092;54;20126;-79
2022/11/14 01:32:26;;;;;;;19.07;16.97;;;2.10;99.90;;;;;;2616155;54;20415;-80
2022/11/14 01:38:16;;;;;;;19.33;17.40;;;2.20;99.90;;;;;;2615870;54;20390;-80
2022/11/14 01:50:35;;;;;;;22.67;18.33;;;2.00;99.90;;;;;;2615021;54;20364;-80
2022/11/14 01:56:31;;;;;;;20.40;17.40;;;2.10;99.90;;;;;;2617094;54;20754;-79
2022/11/14 02:02:23;;;;;;;23.10;18.40;;;1.90;99.90;;;;;;2620298;54;20411;-81
2022/11/14 02:08:14;;;;;;;20.77;18.50;;;1.90;99.90;;;;;;2622531;54;20406;-79
2022/11/14 02:14:03;;;;;;;20.73;17.10;;;1.80;99.90;;;;;;2622204;54;20402;-80
2022/11/14 02:26:10;;;;;;;19.37;17.30;;;1.70;99.90;;;;;;2622144;54;20449;-80
2022/11/14 02:31:58;;;;;;;20.87;18.40;;;1.60;99.90;;;;;;2621660;54;20134;-80
2022/11/14 02:37:46;;;;;;;23.40;18.23;;;1.60;99.90;;;;;;2621083;54;20391;-80
2022/11/14 02:43:34;;;;;;;21.17;17.17;;;1.60;99.90;;;;;;2622819;39;20576;-80
2022/11/14 02:49:22;;;;;;;20.70;17.80;;;1.60;99.90;;;;;;2616972;54;20134;-79
2022/11/14 02:55:10;;;;;;;19.67;17.60;;;1.50;99.90;;;;;;2616983;54;20130;-80
2022/11/14 03:00:57;;;;;;;21.10;18.80;;;1.40;99.90;;;;;;2617410;54;20964;-80
2022/11/14 03:06:45;;;;;;;19.93;17.83;;;1.30;99.90;;;;;;2615095;54;20148;-79
2022/11/14 03:16:44;;;;;;;21.70;18.30;;;1.30;99.90;;;;;;2613945;54;20998;-79
2022/11/14 03:22:31;;;;;;;27.70;22.47;;;1.40;99.90;;;;;;2613773;54;20395;-81
2022/11/14 03:28:19;;;;;;;31.67;26.23;;;1.40;99.90;;;;;;2614716;54;20267;-81
2022/11/14 03:34:06;;;;;;;24.93;22.27;;;1.40;99.90;;;;;;2614580;54;20170;-79
2022/11/14 03:39:54;;;;;;;26.50;23.43;;;1.40;99.90;;;;;;2613099;54;20143;-80
2022/11/14 03:45:42;;;;;;;30.93;22.97;;;1.40;99.90;;;;;;2615192;54;20382;-80
2022/11/14 03:51:29;;;;;;;22.53;20.10;;;1.30;99.90;;;;;;2616509;54;20945;-80
2022/11/14 03:57:17;;;;;;;26.50;22.30;;;1.30;99.90;;;;;;2621898;54;20122;-81
2022/11/14 04:03:05;;;;;;;24.00;21.50;;;1.10;99.90;;;;;;2621206;54;20165;-79
2022/11/14 04:08:55;;;;;;;24.60;21.33;;;1.40;99.90;;;;;;2621213;54;20174;-81
2022/11/14 04:14:43;;;;;;;26.80;21.97;;;1.30;99.90;;;;;;2621469;54;20388;-81
2022/11/14 04:20:31;;;;;;;25.60;21.37;;;1.40;99.90;;;;;;2621276;54;20151;-81
2022/11/14 04:26:19;;;;;;;23.17;20.57;;;1.30;99.90;;;;;;2621763;54;20138;-79
2022/11/14 04:32:07;;;;;;;26.80;21.20;;;1.20;99.90;;;;;;2621302;54;20123;-80
2022/11/14 04:37:54;;;;;;;24.70;21.63;;;1.20;99.90;;;;;;2615598;54;20139;-78
2022/11/14 04:43:42;;;;;;;24.63;21.70;;;1.30;99.90;;;;;;2614916;54;20234;-78
2022/11/14 04:49:30;;;;;;;27.53;21.67;;;1.30;99.90;;;;;;2615157;54;20766;-77
2022/11/14 04:55:17;;;;;;;26.57;22.13;;;1.10;99.90;;;;;;2615581;39;20606;-78
2022/11/14 05:01:10;;;;;;;32.33;22.57;;;1.00;99.90;;;;;;2613537;54;20563;-76
2022/11/14 05:06:57;;;;;;;25.73;21.67;;;1.10;99.90;;;;;;2615050;54;20415;-77
2022/11/14 05:09:44;;;;;;;25.50;21.20;;;1.00;99.90;;;;;;2615123;54;20786;-77
2022/11/14 05:12:10;;;;;;;30.87;23.73;;;1.10;99.90;;;;;;2614983;39;20782;-77
2022/11/14 05:17:58;;;;;;;24.97;21.83;;;1.00;99.90;;;;;;2615151;54;20430;-77
2022/11/14 05:23:46;;;;;;;23.53;20.03;;;1.00;99.90;;;;;;2615724;54;20167;-80
2022/11/14 05:29:33;;;;;;;28.27;24.20;;;1.10;99.90;;;;;;2612845;54;20244;-80
2022/11/14 05:35:20;;;;;;;27.40;24.17;;;1.10;99.90;;;;;;2614850;54;20126;-80
2022/11/14 05:41:13;;;;;;;31.17;23.30;;;1.10;99.90;;;;;;2613858;54;20156;-79
2022/11/14 05:47:00;;;;;;;34.80;25.50;;;1.30;99.90;;;;;;2615253;54;20443;-79
2022/11/14 05:52:46;;;;;;;32.90;24.40;;;1.40;99.90;;;;;;2615291;54;20240;-79
2022/11/14 05:58:34;;;;;;;31.37;24.47;;;1.50;99.90;;;;;;2621008;54;20266;-80
2022/11/14 06:04:22;;;;;;;32.33;24.60;;;1.40;99.90;;;;;;2621141;54;20414;-80
2022/11/14 06:14:19;;;;;;;35.77;25.57;;;1.30;99.90;;;;;;2615774;54;20410;-75
2022/11/14 06:20:12;;;;;;;27.67;19.20;;;2.00;99.90;;;;;;2615068;54;20499;-75
2022/11/14 06:26:04;;;;;;;26.07;19.23;;;5.00;99.90;;;;;;2616344;54;21017;-76
2022/11/14 06:31:52;;;;;;;23.77;18.30;;;5.80;99.90;;;;;;2615852;46;20907;-77
2022/11/14 06:37:40;;;;;;;20.17;18.07;;;6.30;99.90;;;;;;2613827;54;20686;-77
2022/11/14 06:43:27;;;;;;;25.37;17.40;;;6.30;99.90;;;;;;2614270;54;21470;-77
2022/11/14 06:49:15;;;;;;;21.57;17.10;;;6.50;99.90;;;;;;2612626;54;20166;-76
2022/11/14 06:52:18;;;;;;;19.50;17.47;;;6.20;99.90;;;;;;2613747;54;20391;-77
2022/11/14 06:54:44;;;;;;;17.37;15.37;;;6.00;99.90;;;;;;2614508;54;20157;-75
2022/11/14 07:00:32;;;;;;;18.07;14.77;;;5.90;99.90;;;;;;2615136;54;20130;-77
2022/11/14 07:06:23;;;;;;;18.83;16.03;;;6.30;99.90;;;;;;2615976;31;20607;-77
2022/11/14 07:12:10;;;;;;;17.90;16.10;;;6.80;99.90;;;;;;2614468;54;20542;-77
2022/11/14 07:17:58;;;;;;;15.00;13.50;;;7.10;99.90;;;;;;2615387;54;20230;-77
2022/11/14 07:23:46;;;;;;;19.50;14.97;;;6.70;99.90;;;;;;2614269;54;20396;-78
2022/11/14 07:29:34;;;;;;;18.23;14.60;;;6.60;99.90;;;;;;2615695;54;20126;-77
2022/11/14 07:35:22;;;;;;;17.30;15.50;;;7.10;99.90;;;;;;2613788;54;20395;-76
2022/11/14 07:41:12;;;;;;;17.93;15.50;;;7.30;99.90;;;;;;2614937;54;20250;-76
2022/11/14 07:47:00;;;;;;;20.20;15.27;;;7.50;99.90;;;;;;2614309;54;20354;-76
2022/11/14 07:52:52;;;;;;;15.57;14.00;;;7.80;99.90;;;;;;2614012;54;20170;-76
2022/11/14 07:58:41;;;;;;;15.70;13.87;;;7.80;99.90;;;;;;2615915;54;20399;-77
2022/11/14 08:04:28;;;;;;;17.10;15.20;;;7.90;99.90;;;;;;2615955;39;20519;-77
2022/11/14 08:14:22;;;;;;;18.53;16.73;;;11.70;96.50;;;;;;2615847;54;20457;-79
2022/11/14 08:20:10;;;;;;;17.40;15.70;;;12.20;70.30;;;;;;2619218;39;20768;-78
2022/11/14 08:25:58;;;;;;;19.10;17.30;;;10.40;92.50;;;;;;2618298;54;20382;-79
2022/11/14 08:31:46;;;;;;;20.13;18.27;;;10.60;94.40;;;;;;2617432;54;20388;-79
2022/11/14 08:37:34;;;;;;;20.80;19.00;;;9.90;99.90;;;;;;2615471;54;20154;-80
2022/11/14 08:43:22;;;;;;;22.77;20.43;;;9.90;99.90;;;;;;2618157;54;20386;-80
2022/11/14 08:49:10;;;;;;;22.67;19.90;;;10.20;99.90;;;;;;2617721;54;20246;-79
2022/11/14 08:54:57;;;;;;;23.20;21.10;;;9.90;99.90;;;;;;2614647;54;20150;-79
2022/11/14 09:00:45;;;;;;;22.90;20.60;;;10.30;99.90;;;;;;2615833;54;20134;-79
2022/11/14 09:06:33;;;;;;;21.17;19.00;;;10.30;99.90;;;;;;2615526;54;20664;-81
2022/11/14 09:12:21;;;;;;;22.17;20.07;;;10.40;99.90;;;;;;2615331;54;20146;-77
2022/11/14 09:18:10;;;;;;;23.57;21.30;;;9.10;99.90;;;;;;2614557;54;20175;-79
2022/11/14 09:23:57;;;;;;;24.13;21.57;;;9.30;99.90;;;;;;2614858;54;20375;-76
2022/11/14 09:29:45;;;;;;;22.97;20.70;;;9.80;99.90;;;;;;2615244;54;20129;-77
2022/11/14 09:35:35;;;;;;;23.27;21.17;;;9.90;99.90;;;;;;2615802;54;20123;-75
2022/11/14 09:41:24;;;;;;;22.47;20.30;;;9.20;99.90;;;;;;2615278;54;20391;-74
2022/11/14 09:47:20;;;;;;;24.23;21.73;;;9.30;99.90;;;;;;2614556;54;20371;-74
2022/11/14 09:59:25;;;;;;;24.20;22.00;;;9.30;99.90;;;;;;2615260;39;20913;-75
2022/11/14 10:22:41;;;;;;;23.77;21.07;;;9.00;99.90;;;;;;2615003;54;20391;-80
2022/11/14 10:28:32;;;;;;;25.00;22.63;;;9.10;99.90;;;;;;2615577;54;20378;-76
2022/11/14 10:34:26;;;;;;;24.70;20.27;;;9.20;99.90;;;;;;2616059;54;20427;-75
2022/11/14 10:47:08;;;;;;;19.77;18.07;;;9.20;99.90;;;;;;2612548;39;20910;-80
2022/11/14 10:59:09;;;;;;;17.97;16.37;;;9.20;99.90;;;;;;2618739;54;20360;-79
2022/11/14 11:14:03;;;;;;;20.10;18.10;;;9.30;99.90;;;;;;2612537;39;20866;-76
2022/11/14 11:30:21;;;;;;;22.37;20.10;;;9.70;99.90;;;;;;2616499;54;20535;-80
2022/11/14 11:42:34;;;;;;;22.10;20.13;;;11.00;99.90;;;;;;2615612;54;20415;-82
2022/11/14 11:48:24;;;;;;;20.83;18.93;;;12.40;96.80;;;;;;2617275;54;20509;-83
2022/11/14 12:00:37;;;;;;;20.00;18.40;;;12.00;93.40;;;;;;2614727;54;20496;-78
2022/11/14 12:06:29;;;;;;;22.27;20.37;;;13.30;80.70;;;;;;2619371;54;20131;-80
2022/11/14 12:25:58;;;;;;;22.13;18.57;;;10.60;99.90;;;;;;2615426;54;20500;-75
2022/11/14 12:31:47;;;;;;;18.30;16.40;;;10.60;99.90;;;;;;2615381;54;20431;-76
2022/11/14 12:37:41;;;;;;;18.10;16.40;;;10.60;99.90;;;;;;2615773;39;20866;-74
2022/11/14 12:43:33;;;;;;;18.43;16.70;;;10.60;99.90;;;;;;2615429;54;20504;-79
2022/11/14 12:46:02;;;;;;;30.97;18.27;;;10.90;99.90;;;;;;2620688;54;20514;-80
2022/11/14 12:48:34;;;;;;;19.03;17.23;;;11.30;99.90;;;;;;2625111;54;20391;-81
2022/11/14 12:51:37;;;;;;;19.87;17.83;;;11.80;99.90;;;;;;2620595;47;20455;-76
2022/11/14 12:54:02;;;;;;;16.80;15.30;;;10.90;99.90;;;;;;2614222;47;20532;-74
2022/11/14 13:25:32;;;;;;;17.87;16.27;;;10.70;99.90;;;;;;2616740;54;20443;-75
2022/11/14 13:31:21;;;;;;;16.47;15.07;;;10.80;99.90;;;;;;2611897;54;20168;-75
2022/11/14 13:56:59;;;;;;;18.63;16.87;;;11.30;99.90;;;;;;2612068;54;21079;-79
2022/11/14 14:02:58;;;;;;;20.13;18.10;;;11.10;99.90;;;;;;2611095;54;20440;-75
2022/11/14 14:23:08;;;;;;;19.00;17.20;;;11.20;99.90;;;;;;2645370;36;20582;-78
2022/11/14 14:29:35;;;;;;;19.03;17.13;;;10.60;99.90;;;;;;2613401;54;20399;-76
2022/11/14 14:35:26;;;;;;;18.77;16.63;;;10.60;99.90;;;;;;2614000;54;20419;-76
2022/11/14 14:41:16;;;;;;;18.10;16.40;;;10.50;99.90;;;;;;2616147;54;20415;-79
2022/11/14 14:53:52;;;;;;;17.87;16.23;;;10.50;99.90;;;;;;2614876;31;20883;-74
2022/11/14 14:59:41;;;;;;;21.53;19.40;;;10.40;99.90;;;;;;2614149;54;20458;-76
2022/11/14 15:05:29;;;;;;;19.10;17.30;;;10.40;99.90;;;;;;2613936;54;20438;-75
2022/11/14 15:11:17;;;;;;;19.53;17.83;;;10.40;99.90;;;;;;2614694;54;20512;-75
2022/11/14 15:30:30;;;;;;;20.20;17.40;;;10.20;99.90;;;;;;2614980;54;20452;-75
2022/11/14 15:36:17;;;;;;;19.10;15.77;;;10.10;99.90;;;;;;2613750;54;20379;-74
2022/11/14 15:45:48;;;;;;;23.43;18.00;;;10.00;99.90;;;;;;2612560;54;20414;-81
2022/11/14 15:58:13;;;;;;;21.27;17.67;;;9.90;99.90;;;;;;2613025;54;20433;-75
2022/11/14 16:07:22;;;;;;;19.10;17.10;;;9.80;99.90;;;;;;2614333;54;20366;-74
2022/11/14 16:13:10;;;;;;;22.17;20.00;;;9.80;99.90;;;;;;2614068;54;20418;-76
2022/11/14 16:18:56;;;;;;;19.47;17.40;;;9.80;99.90;;;;;;2612951;39;20926;-75
2022/11/14 16:24:44;;;;;;;18.30;16.60;;;9.80;99.90;;;;;;2613878;54;20178;-76
2022/11/14 16:30:30;;;;;;;19.77;17.90;;;9.80;99.90;;;;;;2613829;54;20150;-75
2022/11/14 16:36:20;;;;;;;19.87;17.30;;;9.80;99.90;;;;;;2614201;54;20174;-75
2022/11/14 16:42:10;;;;;;;20.63;18.43;;;9.70;99.90;;;;;;2614509;54;20461;-78
2022/11/14 16:47:57;;;;;;;21.13;18.33;;;9.80;99.90;;;;;;2612207;39;20797;-74
2022/11/14 16:50:22;;;;;;;18.37;16.63;;;9.70;99.90;;;;;;2611333;47;20440;-75
2022/11/14 16:52:48;;;;;;;19.67;17.67;;;9.70;99.90;;;;;;2613608;39;20643;-76
2022/11/14 16:58:38;;;;;;;23.53;18.20;;;9.70;99.90;;;;;;2611649;54;20175;-76
2022/11/14 17:04:25;;;;;;;18.37;16.67;;;9.70;99.90;;;;;;2613034;54;20395;-76
2022/11/14 17:10:12;;;;;;;19.43;17.43;;;9.70;99.90;;;;;;2612763;54;20131;-76
2022/11/14 17:16:13;;;;;;;19.07;17.17;;;9.70;99.90;;;;;;2615064;54;20671;-75
2022/11/14 17:22:12;;;;;;;21.13;18.90;;;9.70;99.90;;;;;;2612898;54;20418;-77
2022/11/14 17:27:59;;;;;;;18.17;16.47;;;9.70;99.90;;;;;;2614021;54;20374;-75
2022/11/14 17:33:50;;;;;;;26.20;19.53;;;9.60;99.90;;;;;;2614420;54;20134;-76
2022/11/14 17:39:38;;;;;;;18.40;16.70;;;9.60;99.90;;;;;;2614842;54;20775;-77
2022/11/14 17:45:26;;;;;;;18.70;16.87;;;9.60;99.90;;;;;;2614806;54;20138;-75
2022/11/14 17:51:14;;;;;;;19.70;17.60;;;9.60;99.90;;;;;;2614749;54;20393;-79
2022/11/14 17:57:02;;;;;;;18.00;16.20;;;9.60;99.90;;;;;;2615856;54;20366;-77
2022/11/14 18:02:49;;;;;;;18.43;16.83;;;9.60;99.90;;;;;;2614987;54;20383;-74
2022/11/14 18:08:37;;;;;;;18.43;16.67;;;9.60;99.90;;;;;;2615534;54;20238;-77
2022/11/14 18:14:25;;;;;;;18.87;16.90;;;9.60;99.90;;;;;;2615584;54;20419;-79
2022/11/14 18:17:12;;;;;;;19.20;15.63;;;9.50;99.90;;;;;;2613640;39;20754;-76
2022/11/14 18:19:38;;;;;;;18.93;16.97;;;9.60;99.90;;;;;;2614809;54;20663;-76
2022/11/14 18:25:28;;;;;;;18.57;16.70;;;9.60;99.90;;;;;;2614378;54;20158;-76
2022/11/14 18:31:15;;;;;;;15.43;14.03;;;9.60;99.90;;;;;;2615664;54;20414;-81
2022/11/14 18:37:04;;;;;;;20.80;17.17;;;9.50;99.90;;;;;;2615989;46;20418;-80
2022/11/14 18:42:51;;;;;;;19.40;16.07;;;9.50;99.90;;;;;;2616309;54;20649;-80
2022/11/14 18:48:41;;;;;;;17.07;13.60;;;9.50;99.90;;;;;;2615508;54;20153;-78
2022/11/14 18:51:44;;;;;;;21.20;16.30;;;9.50;99.90;;;;;;2614721;54;20917;-82
2022/11/14 18:54:12;;;;;;;19.57;17.50;;;9.50;99.90;;;;;;2615619;54;20403;-80
2022/11/14 19:00:00;;;;;;;17.03;15.30;;;9.50;99.90;;;;;;2614689;54;20374;-79
2022/11/14 19:05:49;;;;;;;17.60;15.77;;;9.50;99.90;;;;;;2615754;54;20134;-79
2022/11/14 19:21:46;;;;;;;17.87;16.10;;;9.40;99.90;;;;;;2614605;54;20373;-79
2022/11/14 19:27:34;;;;;;;16.50;14.97;;;9.30;99.90;;;;;;2616216;46;20405;-79
2022/11/14 19:33:22;;;;;;;17.60;15.47;;;9.30;99.90;;;;;;2613998;39;20519;-80
2022/11/14 19:39:10;;;;;;;19.93;14.87;;;9.30;99.90;;;;;;2615499;54;20210;-78
2022/11/14 19:44:57;;;;;;;19.10;17.27;;;9.20;99.90;;;;;;2612761;46;20150;-79
2022/11/14 19:50:45;;;;;;;18.63;16.73;;;8.90;99.90;;;;;;2615478;54;20154;-80
2022/11/14 19:56:33;;;;;;;18.43;15.90;;;8.70;99.90;;;;;;2614153;54;20718;-80
2022/11/14 20:02:21;;;;;;;17.73;16.03;;;8.70;99.90;;;;;;2613753;54;20147;-80
2022/11/14 20:08:08;;;;;;;17.13;14.87;;;8.60;99.90;;;;;;2615631;54;20134;-78
2022/11/14 20:13:58;;;;;;;17.10;15.33;;;8.50;99.90;;;;;;2614015;54;20178;-80
2022/11/14 20:19:55;;;;;;;14.87;13.40;;;8.40;99.90;;;;;;2612210;47;20404;-79
2022/11/14 20:25:49;;;;;;;17.57;15.73;;;8.20;99.90;;;;;;2612786;54;20153;-79
2022/11/14 20:31:36;;;;;;;17.60;15.70;;;8.10;99.90;;;;;;2613440;54;20503;-80
2022/11/14 20:46:58;;;;;;;16.73;15.03;;;7.80;99.90;;;;;;2611948;54;20423;-80
2022/11/14 20:52:47;;;;;;;17.83;16.03;;;8.10;99.90;;;;;;2612943;39;20647;-79
2022/11/14 20:58:34;;;;;;;17.23;14.97;;;8.30;99.90;;;;;;2615579;54;20503;-79
2022/11/14 21:04:22;;;;;;;17.40;14.60;;;8.30;99.90;;;;;;2610093;54;20411;-79
2022/11/14 21:16:18;;;;;;;16.77;14.00;;;8.40;99.90;;;;;;2614630;39;20738;-78
2022/11/14 21:22:05;;;;;;;19.37;15.80;;;8.40;99.90;;;;;;2613213;54;20399;-79
2022/11/14 21:27:53;;;;;;;15.30;13.90;;;8.50;99.90;;;;;;2614964;54;20161;-80
2022/11/14 21:33:42;;;;;;;17.20;15.40;;;8.50;99.90;;;;;;2615123;39;20769;-79
2022/11/14 21:39:30;;;;;;;18.83;16.27;;;8.70;99.90;;;;;;2614806;54;20442;-78
2022/11/14 21:45:18;;;;;;;16.27;14.67;;;8.70;99.90;;;;;;2614363;54;20190;-78
2022/11/14 21:51:11;;;;;;;15.80;14.10;;;8.90;99.90;;;;;;2614494;54;20134;-79
2022/11/14 21:56:59;;;;;;;15.80;13.50;;;8.90;99.90;;;;;;2614515;54;20354;-79
2022/11/14 22:08:54;;;;;;;17.30;15.20;;;9.00;99.90;;;;;;2614301;54;20382;-78
2022/11/14 22:14:42;;;;;;;16.50;14.53;;;9.10;99.90;;;;;;2615139;54;20411;-78
2022/11/14 22:17:11;;;;;;;17.60;15.80;;;9.10;99.90;;;;;;2613380;47;20402;-78
2022/11/14 22:19:36;;;;;;;17.53;15.73;;;9.20;99.90;;;;;;2615315;54;20143;-78
2022/11/14 22:25:24;;;;;;;15.57;13.90;;;9.30;99.90;;;;;;2615005;54;20134;-78
2022/11/14 22:31:20;;;;;;;14.63;13.27;;;9.40;99.90;;;;;;2615718;54;20146;-79
2022/11/14 22:37:08;;;;;;;18.23;14.00;;;9.50;99.90;;;;;;2614979;54;20990;-75
2022/11/14 22:42:59;;;;;;;14.07;12.70;;;9.60;99.90;;;;;;2615115;54;20210;-75
2022/11/14 22:48:48;;;;;;;15.17;12.67;;;9.80;99.90;;;;;;2615881;54;20472;-77
2022/11/14 22:54:35;;;;;;;14.50;13.10;;;10.00;99.90;;;;;;2616009;54;20425;-77
2022/11/14 23:00:23;;;;;;;16.50;14.97;;;10.00;99.90;;;;;;2616032;39;20555;-76
2022/11/14 23:06:14;;;;;;;14.67;13.27;;;10.00;99.90;;;;;;2615930;39;20539;-76
2022/11/14 23:12:01;;;;;;;12.90;11.70;;;9.90;99.90;;;;;;2616571;46;20894;-76
2022/11/14 23:21:45;;;;;;;14.27;12.30;;;9.90;99.90;;;;;;2615486;54;20895;-76
2022/11/14 23:27:33;;;;;;;13.37;12.07;;;10.20;99.90;;;;;;2615358;39;20767;-75
2022/11/14 23:33:21;;;;;;;15.30;11.40;;;10.60;99.90;;;;;;2615227;54;20395;-77
2022/11/14 23:39:09;;;;;;;13.50;12.20;;;10.70;99.90;;;;;;2615172;54;20134;-77
2022/11/14 23:44:56;;;;;;;13.10;11.90;;;10.90;99.90;;;;;;2615601;54;20135;-76
2022/11/14 23:50:47;;;;;;;13.60;12.20;;;11.10;99.90;;;;;;2615456;31;20865;-77
2022/11/14 23:56:35;;;;;;;16.50;12.00;;;11.30;99.90;;;;;;2616475;54;20504;-75
